This is the latest recevied weather packets stored in our database for station/object SV6DBG-10. If no packets are shown the sender has not sent any weather packets the latest 10 day(s).
| Time | Temp. | Humidity | Pressure | Rain* | Wind** | Luminosity | Snow |
|---|---|---|---|---|---|---|---|
| 1777183507 | 17.78° C | 46% | 1019.2 hPa | - | - | - | - |
| 1777182607 | 18.89° C | 42% | 1019.3 hPa | - | - | - | - |
| 1777181706 | 18.33° C | 44% | 1019.3 hPa | - | - | - | - |
| 1777180806 | 17.78° C | 46% | 1019.2 hPa | - | - | - | - |
| 1777179906 | 17.22° C | 46% | 1019.2 hPa | - | - | - | - |
| 1777179006 | 17.22° C | 47% | 1019.2 hPa | - | - | - | - |
| 1777178106 | 15° C | 54% | 1019.2 hPa | - | - | - | - |
| 1777177206 | 8.89° C | 78% | 1019.2 hPa | - | - | - | - |
| 1777176306 | 8.89° C | 77% | 1019.2 hPa | - | - | - | - |
| 1777175405 | 8.33° C | 79% | 1019 hPa | - | - | - | - |
| 1777174505 | 8.33° C | 78% | 1019 hPa | - | - | - | - |
| 1777173605 | 8.33° C | 76% | 1019 hPa | - | - | - | - |
| 1777172705 | 8.33° C | 76% | 1018.8 hPa | - | - | - | - |
| 1777171805 | 8.33° C | 77% | 1018.7 hPa | - | - | - | - |
| 1777170904 | 8.89° C | 76% | 1018.7 hPa | - | - | - | - |
| 1777170004 | 9.44° C | 73% | 1018.6 hPa | - | - | - | - |
| 1777169104 | 9.44° C | 75% | 1018.5 hPa | - | - | - | - |
| 1777168204 | 9.44° C | 75% | 1018.5 hPa | - | - | - | - |
| 1777167304 | 8.89° C | 76% | 1018.4 hPa | - | - | - | - |
| 1777166404 | 8.89° C | 72% | 1018.5 hPa | - | - | - | - |
| 1777165504 | 9.44° C | 72% | 1018.5 hPa | - | - | - | - |
| 1777164603 | 10.56° C | 72% | 1018.3 hPa | - | - | - | - |
| 1777163703 | 10.56° C | 69% | 1018.2 hPa | - | - | - | - |
| 1777162803 | 10.56° C | 68% | 1018.2 hPa | - | - | - | - |
| 1777161903 | 10.56° C | 68% | 1018.2 hPa | - | - | - | - |
* Rain since midnight (hover to see other rain measurements)
** Current wind speed in m/s (hover to see current wind gust speed)